Time;durP1;ratioP1;P1;durP2;ratioP2;P2;SDS_P1;SDS_P2;PMS_P1;PMS_P2;Temp;Humidity;BMP_temperature;BMP_pressure;BME280_temperature;BME280_humidity;BME280_pressure;Samples;Min_cycle;Max_cycle;Signal;HPM_P1;HPM_P2
2021/05/14 00:00:47;;;;;;;15.67;12.70;;;11.60;99.90;;;;;;6195389;23;20160;-69
2021/05/14 00:03:13;;;;;;;15.53;11.73;;;11.60;99.90;;;;;;6195043;22;20676;-69
2021/05/14 00:05:39;;;;;;;17.83;12.47;;;11.50;99.90;;;;;;6196161;22;21013;-69
2021/05/14 00:08:09;;;;;;;16.67;13.43;;;11.40;99.90;;;;;;6194141;23;20612;-69
2021/05/14 00:10:38;;;;;;;17.27;12.27;;;11.40;99.90;;;;;;6199069;23;20173;-68
2021/05/14 00:13:09;;;;;;;18.33;11.77;;;11.40;99.90;;;;;;6197901;22;21135;-69
2021/05/14 00:15:36;;;;;;;16.67;12.43;;;11.30;99.90;;;;;;6196260;23;20827;-69
2021/05/14 00:18:02;;;;;;;14.27;11.90;;;11.30;99.90;;;;;;6169791;23;20567;-68
2021/05/14 00:20:28;;;;;;;14.17;11.93;;;11.30;99.90;;;;;;6197964;23;20846;-68
2021/05/14 00:22:54;;;;;;;16.50;11.90;;;11.30;99.90;;;;;;6198530;23;20532;-68
2021/05/14 00:25:22;;;;;;;16.73;10.70;;;11.30;99.90;;;;;;6201005;23;20159;-69
2021/05/14 00:27:48;;;;;;;16.67;10.60;;;11.30;99.90;;;;;;6170718;23;21177;-69
2021/05/14 00:30:14;;;;;;;14.40;9.80;;;11.30;99.90;;;;;;6187662;23;20579;-69
2021/05/14 00:32:40;;;;;;;15.67;11.30;;;11.20;99.90;;;;;;6198922;23;20241;-68
2021/05/14 00:35:06;;;;;;;12.60;9.97;;;11.20;99.90;;;;;;6167630;23;21100;-68
2021/05/14 00:37:32;;;;;;;13.63;9.50;;;11.20;99.90;;;;;;6168901;23;20264;-69
2021/05/14 00:40:04;;;;;;;14.50;10.10;;;11.30;99.90;;;;;;6196255;23;20562;-69
2021/05/14 00:42:29;;;;;;;14.50;9.30;;;11.30;99.90;;;;;;6196557;23;20550;-69
2021/05/14 00:44:58;;;;;;;10.67;8.17;;;11.20;99.90;;;;;;6198906;22;20593;-68
2021/05/14 00:47:23;;;;;;;12.57;9.80;;;11.20;99.90;;;;;;6170438;23;20263;-68
2021/05/14 00:49:51;;;;;;;12.63;9.40;;;11.20;99.90;;;;;;6199341;23;20551;-69
2021/05/14 00:52:19;;;;;;;12.50;9.60;;;11.10;99.90;;;;;;6189683;23;20160;-68
2021/05/14 00:54:46;;;;;;;10.77;9.67;;;11.10;99.90;;;;;;6192318;23;20617;-68
2021/05/14 00:57:15;;;;;;;14.20;8.70;;;11.10;99.90;;;;;;6169960;23;21072;-69
2021/05/14 00:59:45;;;;;;;13.57;9.70;;;11.10;99.90;;;;;;6194368;23;21133;-68
2021/05/14 01:02:11;;;;;;;11.30;10.10;;;11.20;99.90;;;;;;6200249;23;20676;-69
2021/05/14 01:04:37;;;;;;;11.70;10.17;;;11.10;99.90;;;;;;6211343;23;20594;-73
2021/05/14 01:07:04;;;;;;;13.80;10.43;;;11.10;99.90;;;;;;6184141;23;20926;-70
2021/05/14 01:09:30;;;;;;;13.67;10.70;;;11.10;99.90;;;;;;6193104;23;20531;-70
2021/05/14 01:11:58;;;;;;;17.00;10.87;;;11.10;99.90;;;;;;6198401;23;20629;-69
2021/05/14 01:14:24;;;;;;;14.50;10.63;;;11.00;99.90;;;;;;6194765;23;20615;-68
2021/05/14 01:16:49;;;;;;;13.73;11.13;;;11.00;99.90;;;;;;6198338;23;20765;-69
2021/05/14 01:19:15;;;;;;;12.13;10.87;;;11.00;99.90;;;;;;6198106;23;20159;-69
2021/05/14 01:21:41;;;;;;;15.10;11.30;;;11.00;99.90;;;;;;6197987;23;20183;-68
2021/05/14 01:24:07;;;;;;;18.97;11.50;;;11.00;99.90;;;;;;6173478;23;20299;-68
2021/05/14 01:26:33;;;;;;;13.13;10.50;;;11.00;99.90;;;;;;6195215;22;20187;-69
2021/05/14 01:29:00;;;;;;;12.23;11.00;;;11.00;99.90;;;;;;6165536;23;20929;-69
2021/05/14 01:31:25;;;;;;;14.43;10.77;;;11.00;99.90;;;;;;6196232;22;20259;-69
2021/05/14 01:33:51;;;;;;;12.57;10.97;;;11.00;99.90;;;;;;6168281;22;20961;-69
2021/05/14 01:36:18;;;;;;;15.47;10.93;;;11.00;99.90;;;;;;6199430;23;20225;-68
2021/05/14 01:38:44;;;;;;;14.03;10.73;;;11.00;99.90;;;;;;6172983;22;20449;-68
2021/05/14 01:41:10;;;;;;;15.40;10.73;;;11.10;99.90;;;;;;6195691;23;20887;-68
2021/05/14 01:43:36;;;;;;;14.83;11.77;;;11.10;99.90;;;;;;6168514;23;20595;-68
2021/05/14 01:46:04;;;;;;;14.57;11.13;;;11.20;99.90;;;;;;6170638;23;20262;-69
2021/05/14 01:48:30;;;;;;;11.90;10.53;;;11.20;99.90;;;;;;6200684;22;20581;-68
2021/05/14 01:51:23;;;;;;;14.30;11.07;;;11.10;99.90;;;;;;6196887;23;21361;-70
2021/05/14 01:53:50;;;;;;;20.93;11.37;;;11.20;99.90;;;;;;6200586;23;20781;-68
2021/05/14 01:56:16;;;;;;;15.37;10.93;;;11.20;99.90;;;;;;6202715;23;20581;-68
2021/05/14 01:58:42;;;;;;;18.80;12.43;;;11.30;99.90;;;;;;6174727;23;20631;-69
2021/05/14 02:01:09;;;;;;;13.63;10.67;;;11.30;99.90;;;;;;6199268;23;20567;-68
2021/05/14 02:03:35;;;;;;;13.17;10.47;;;11.20;99.90;;;;;;6201729;23;20590;-68
2021/05/14 02:06:00;;;;;;;15.50;11.33;;;11.10;99.90;;;;;;6204352;23;20583;-69
2021/05/14 02:08:26;;;;;;;13.50;12.00;;;11.20;99.90;;;;;;6196136;23;20237;-69
2021/05/14 02:10:52;;;;;;;15.20;11.00;;;11.10;99.90;;;;;;6198867;23;20219;-68
2021/05/14 02:13:17;;;;;;;16.77;11.30;;;11.10;99.90;;;;;;6199820;23;20443;-69
2021/05/14 02:15:43;;;;;;;15.17;12.13;;;11.10;99.90;;;;;;6170810;23;20686;-69
2021/05/14 02:18:09;;;;;;;16.10;12.40;;;11.10;99.90;;;;;;6196623;23;20272;-69
2021/05/14 02:20:36;;;;;;;17.80;12.40;;;11.10;99.90;;;;;;6198525;23;20381;-69
2021/05/14 02:23:02;;;;;;;21.30;13.17;;;11.10;99.90;;;;;;6198114;23;20165;-68
2021/05/14 02:25:28;;;;;;;13.50;11.97;;;11.00;99.90;;;;;;6201225;23;20894;-69
2021/05/14 02:27:53;;;;;;;18.97;13.10;;;11.00;99.90;;;;;;6199474;23;20196;-69
2021/05/14 02:30:21;;;;;;;16.40;13.40;;;11.00;99.90;;;;;;6172513;23;20518;-69
2021/05/14 02:32:46;;;;;;;15.43;12.27;;;10.90;99.90;;;;;;6174666;22;20213;-69
2021/05/14 02:35:12;;;;;;;18.60;12.90;;;10.90;99.90;;;;;;6197240;23;20591;-69
2021/05/14 02:37:38;;;;;;;17.43;13.63;;;11.00;99.90;;;;;;6195786;23;20184;-67
2021/05/14 02:40:04;;;;;;;18.40;13.00;;;11.00;99.90;;;;;;6199706;23;20623;-67
2021/05/14 02:42:30;;;;;;;21.73;13.50;;;11.00;99.90;;;;;;6195274;23;20153;-65
2021/05/14 02:44:56;;;;;;;18.17;12.87;;;11.00;99.90;;;;;;6197322;23;20914;-67
2021/05/14 02:47:24;;;;;;;15.60;13.80;;;10.90;99.90;;;;;;6198800;23;20559;-67
2021/05/14 02:49:50;;;;;;;16.87;13.07;;;11.00;99.90;;;;;;6166517;23;20529;-67
2021/05/14 02:52:16;;;;;;;19.80;13.50;;;10.90;99.90;;;;;;6165711;23;20555;-66
2021/05/14 02:54:44;;;;;;;14.13;12.63;;;10.90;99.90;;;;;;6189836;23;20358;-67
2021/05/14 02:57:12;;;;;;;17.67;13.47;;;10.90;99.90;;;;;;6197666;23;20651;-67
2021/05/14 02:59:40;;;;;;;19.17;14.27;;;11.00;99.90;;;;;;6199445;22;20547;-67
2021/05/14 03:02:07;;;;;;;18.40;13.70;;;10.90;99.90;;;;;;6190368;23;20647;-70
2021/05/14 03:04:32;;;;;;;17.67;13.70;;;10.90;99.90;;;;;;6169482;23;20622;-67
2021/05/14 03:06:58;;;;;;;15.67;13.60;;;11.00;99.90;;;;;;6197720;23;21015;-67
2021/05/14 03:09:24;;;;;;;19.17;15.27;;;11.00;99.90;;;;;;6173742;23;20164;-67
2021/05/14 03:11:50;;;;;;;19.10;13.97;;;10.90;99.90;;;;;;6200114;23;20347;-66
2021/05/14 03:14:18;;;;;;;17.20;13.87;;;10.90;99.90;;;;;;6197623;23;20203;-66
2021/05/14 03:16:43;;;;;;;15.90;13.30;;;10.90;99.90;;;;;;6197493;23;20413;-67
2021/05/14 03:19:09;;;;;;;21.33;14.70;;;10.90;99.90;;;;;;6200081;23;20543;-67
2021/05/14 03:21:34;;;;;;;18.80;13.97;;;10.90;99.90;;;;;;6200764;23;20160;-67
2021/05/14 03:24:02;;;;;;;16.23;13.60;;;10.90;99.90;;;;;;6196836;22;20199;-66
2021/05/14 03:26:28;;;;;;;18.87;13.33;;;10.90;99.90;;;;;;6198354;23;20192;-65
2021/05/14 03:28:53;;;;;;;19.03;13.93;;;10.90;99.90;;;;;;6198411;23;20543;-67
2021/05/14 03:31:19;;;;;;;18.73;14.10;;;10.90;99.90;;;;;;6194973;23;20284;-67
2021/05/14 03:33:45;;;;;;;23.23;14.60;;;10.90;99.90;;;;;;6194128;23;20200;-67
2021/05/14 03:36:17;;;;;;;22.87;15.70;;;10.90;99.90;;;;;;6195917;23;20711;-67
2021/05/14 03:38:42;;;;;;;24.10;14.47;;;11.00;99.90;;;;;;6199255;23;20532;-66
2021/05/14 03:41:32;;;;;;;19.13;13.03;;;11.00;99.90;;;;;;6200202;22;20609;-65
2021/05/14 03:43:58;;;;;;;22.43;14.73;;;11.00;99.90;;;;;;6203883;23;20196;-67
2021/05/14 03:46:27;;;;;;;25.20;14.33;;;11.00;99.90;;;;;;6167901;22;21313;-67
2021/05/14 03:48:53;;;;;;;19.47;14.00;;;11.00;99.90;;;;;;6173039;22;20569;-67
2021/05/14 03:51:19;;;;;;;19.10;13.83;;;11.00;99.90;;;;;;6204247;23;20611;-66
2021/05/14 03:53:44;;;;;;;20.90;14.60;;;11.00;99.90;;;;;;6185739;23;20602;-66
2021/05/14 03:56:12;;;;;;;20.10;14.40;;;10.90;99.90;;;;;;6205655;23;20176;-66
2021/05/14 03:58:38;;;;;;;19.17;13.83;;;10.90;99.90;;;;;;6197594;23;20195;-67
2021/05/14 04:01:04;;;;;;;19.00;13.73;;;10.90;99.90;;;;;;6168205;22;20575;-66
2021/05/14 04:03:29;;;;;;;21.37;14.17;;;10.90;99.90;;;;;;6169405;23;20757;-67
2021/05/14 04:05:55;;;;;;;20.07;13.70;;;10.90;99.90;;;;;;6169346;23;20184;-67
2021/05/14 04:08:21;;;;;;;18.07;14.43;;;10.90;99.90;;;;;;6169671;23;20637;-66
2021/05/14 04:11:50;;;;;;;20.53;14.20;;;10.90;99.90;;;;;;6170381;23;20244;-67
2021/05/14 04:16:17;;;;;;;20.43;13.20;;;11.00;99.90;;;;;;6196953;23;20562;-65
2021/05/14 04:18:43;;;;;;;17.13;13.17;;;10.90;99.90;;;;;;6171569;23;20559;-67
2021/05/14 04:21:10;;;;;;;20.27;13.93;;;10.80;99.90;;;;;;6197657;23;20539;-67
2021/05/14 04:23:36;;;;;;;16.97;13.47;;;10.80;99.90;;;;;;6197267;23;20279;-68
2021/05/14 04:26:02;;;;;;;24.23;13.10;;;10.80;99.90;;;;;;6194369;23;21138;-67
2021/05/14 04:28:30;;;;;;;21.00;12.10;;;10.80;99.90;;;;;;6199215;22;20176;-66
2021/05/14 04:30:55;;;;;;;15.77;12.03;;;11.00;99.90;;;;;;6192217;23;20616;-66
2021/05/14 04:33:21;;;;;;;15.03;11.57;;;10.90;99.90;;;;;;6196864;23;21083;-67
2021/05/14 04:35:48;;;;;;;16.07;11.40;;;11.00;99.90;;;;;;6196473;23;20160;-67
2021/05/14 04:38:13;;;;;;;14.83;11.47;;;11.00;99.90;;;;;;6199181;23;20417;-67
2021/05/14 04:40:39;;;;;;;15.70;10.43;;;11.00;99.90;;;;;;6199982;23;20563;-67
2021/05/14 04:43:05;;;;;;;14.63;11.03;;;11.10;99.90;;;;;;6199446;23;20539;-67
2021/05/14 04:45:31;;;;;;;12.40;10.20;;;11.10;99.90;;;;;;6194529;23;20160;-65
2021/05/14 04:47:57;;;;;;;15.23;11.10;;;11.10;99.90;;;;;;6194104;23;21575;-66
2021/05/14 04:50:24;;;;;;;14.07;10.47;;;11.10;99.90;;;;;;6195609;23;20236;-67
2021/05/14 04:53:02;;;;;;;18.57;10.30;;;11.10;99.90;;;;;;6165050;23;20579;-67
2021/05/14 04:55:27;;;;;;;16.07;10.00;;;11.00;99.90;;;;;;6193870;22;20636;-67
2021/05/14 04:57:53;;;;;;;16.53;9.63;;;11.10;99.90;;;;;;6196238;23;20836;-67
2021/05/14 05:00:19;;;;;;;14.00;9.60;;;11.10;99.90;;;;;;6196072;23;20543;-67
2021/05/14 05:02:44;;;;;;;11.77;9.20;;;11.10;99.90;;;;;;6193903;22;20457;-67
2021/05/14 05:05:10;;;;;;;13.30;8.93;;;11.20;99.90;;;;;;6188786;23;20619;-66
2021/05/14 05:07:36;;;;;;;15.10;9.30;;;11.10;99.90;;;;;;6191786;22;20195;-66
2021/05/14 05:10:02;;;;;;;14.53;9.50;;;11.20;99.90;;;;;;6195359;23;20867;-67
2021/05/14 05:12:28;;;;;;;11.70;9.23;;;11.00;99.90;;;;;;6199110;23;20168;-67
2021/05/14 05:14:53;;;;;;;13.80;8.50;;;11.00;99.90;;;;;;6198150;23;20591;-66
2021/05/14 05:17:19;;;;;;;15.37;9.10;;;11.00;99.90;;;;;;6168865;22;20196;-67
2021/05/14 05:19:44;;;;;;;10.83;8.67;;;10.90;99.90;;;;;;6201938;23;20184;-68
2021/05/14 05:22:10;;;;;;;10.37;8.63;;;10.90;99.90;;;;;;6194882;23;20253;-67
2021/05/14 05:24:35;;;;;;;14.30;9.50;;;10.90;99.90;;;;;;6174305;23;20211;-67
2021/05/14 05:27:01;;;;;;;12.03;9.97;;;10.90;99.90;;;;;;6193165;23;20191;-66
2021/05/14 05:29:29;;;;;;;15.07;9.70;;;11.00;99.90;;;;;;6184767;22;20200;-62
2021/05/14 05:31:54;;;;;;;12.93;10.00;;;10.90;99.90;;;;;;6162289;23;20208;-64
2021/05/14 05:34:20;;;;;;;15.93;10.70;;;11.00;99.90;;;;;;6162914;22;21179;-63
2021/05/14 05:36:45;;;;;;;14.83;10.13;;;11.00;99.90;;;;;;6185603;22;20251;-63
2021/05/14 05:39:11;;;;;;;18.60;10.67;;;11.00;99.90;;;;;;6202580;23;20159;-63
2021/05/14 05:41:37;;;;;;;17.40;9.70;;;11.10;99.90;;;;;;6200208;23;20500;-63
2021/05/14 05:44:02;;;;;;;17.07;10.50;;;11.00;99.90;;;;;;6201936;23;20665;-64
2021/05/14 05:46:28;;;;;;;13.70;10.13;;;11.00;99.90;;;;;;6198709;23;20184;-64
2021/05/14 05:48:54;;;;;;;17.87;9.80;;;11.00;99.90;;;;;;6200312;23;20907;-64
2021/05/14 05:51:19;;;;;;;14.90;9.70;;;10.90;99.90;;;;;;6199952;23;20218;-64
2021/05/14 05:53:45;;;;;;;15.00;10.20;;;11.00;99.90;;;;;;6198842;23;20246;-66
2021/05/14 05:56:11;;;;;;;15.47;9.87;;;10.90;99.90;;;;;;6176112;23;20645;-65
2021/05/14 05:58:36;;;;;;;15.67;9.30;;;11.00;99.90;;;;;;6176150;23;20641;-66
2021/05/14 06:01:03;;;;;;;13.00;9.10;;;11.00;99.90;;;;;;6201968;23;20536;-64
2021/05/14 06:03:28;;;;;;;14.27;8.33;;;11.10;99.90;;;;;;6197336;23;20199;-65
2021/05/14 06:05:54;;;;;;;13.30;9.23;;;11.00;99.90;;;;;;6194595;23;20627;-65
2021/05/14 06:08:20;;;;;;;17.20;10.33;;;11.00;99.90;;;;;;6201004;23;20164;-63
2021/05/14 06:10:48;;;;;;;18.30;8.60;;;11.10;99.90;;;;;;6202841;23;20212;-64
2021/05/14 06:13:15;;;;;;;14.37;9.17;;;11.10;99.90;;;;;;6198019;22;20196;-64
2021/05/14 06:15:40;;;;;;;17.03;9.90;;;11.20;99.90;;;;;;6197334;23;20643;-64
2021/05/14 06:18:14;;;;;;;14.07;9.50;;;11.20;99.90;;;;;;6199660;23;20609;-63
2021/05/14 06:20:45;;;;;;;12.77;8.83;;;11.10;99.90;;;;;;6205072;23;20201;-64
2021/05/14 06:23:12;;;;;;;14.27;9.30;;;11.10;99.90;;;;;;6201990;22;20551;-64
2021/05/14 06:25:39;;;;;;;12.70;9.63;;;11.20;99.90;;;;;;6175536;23;20585;-64
2021/05/14 06:28:05;;;;;;;15.60;9.23;;;11.10;99.90;;;;;;6201273;23;20532;-65
2021/05/14 06:30:33;;;;;;;11.93;8.83;;;11.20;99.90;;;;;;6176690;23;20627;-64
2021/05/14 06:32:59;;;;;;;13.13;9.00;;;11.20;99.90;;;;;;6202737;23;20536;-63
2021/05/14 06:35:29;;;;;;;16.57;9.70;;;11.30;99.90;;;;;;6202321;23;20535;-64
2021/05/14 06:37:57;;;;;;;16.27;8.53;;;11.30;99.90;;;;;;6177700;22;20172;-64
2021/05/14 06:40:23;;;;;;;15.57;9.70;;;11.30;99.90;;;;;;6204353;23;21060;-64
2021/05/14 06:42:48;;;;;;;12.93;8.60;;;11.10;99.90;;;;;;6203079;23;20604;-64
2021/05/14 06:45:14;;;;;;;11.90;9.30;;;11.20;99.90;;;;;;6201382;23;20210;-64
2021/05/14 06:47:39;;;;;;;12.13;9.10;;;11.30;99.90;;;;;;6199000;23;20226;-64
2021/05/14 06:50:08;;;;;;;11.13;8.90;;;11.30;99.90;;;;;;6200824;23;20157;-63
2021/05/14 06:52:35;;;;;;;10.70;8.73;;;11.30;99.90;;;;;;6201867;23;20161;-64
2021/05/14 06:55:06;;;;;;;12.43;8.63;;;11.30;99.90;;;;;;6175150;23;20595;-63
2021/05/14 06:57:32;;;;;;;10.50;8.93;;;11.40;99.90;;;;;;6171386;22;20587;-64
2021/05/14 06:59:57;;;;;;;14.37;9.60;;;11.40;99.90;;;;;;6204067;23;20620;-64
2021/05/14 07:02:23;;;;;;;9.53;8.40;;;11.40;99.90;;;;;;6199669;23;20161;-63
2021/05/14 07:04:48;;;;;;;13.80;9.30;;;11.40;99.90;;;;;;6196562;22;20200;-64
2021/05/14 07:07:14;;;;;;;15.40;9.30;;;11.40;99.90;;;;;;6197941;23;20241;-65
2021/05/14 07:09:39;;;;;;;15.53;9.00;;;11.40;99.90;;;;;;6199840;22;20156;-64
2021/05/14 07:12:05;;;;;;;13.07;8.87;;;11.50;99.90;;;;;;6202152;23;20180;-65
2021/05/14 07:14:36;;;;;;;17.00;10.30;;;11.50;99.90;;;;;;6174381;23;20235;-65
2021/05/14 07:17:01;;;;;;;10.13;8.67;;;11.50;99.90;;;;;;6174767;23;20180;-64
2021/05/14 07:19:27;;;;;;;21.00;9.50;;;11.50;99.90;;;;;;6200969;23;20531;-63
2021/05/14 07:21:56;;;;;;;12.23;9.00;;;11.50;99.90;;;;;;6201267;22;20156;-64
2021/05/14 07:24:21;;;;;;;19.93;9.37;;;11.50;99.90;;;;;;6200422;23;20207;-64
2021/05/14 07:26:49;;;;;;;17.30;9.57;;;11.50;99.90;;;;;;6202179;23;20568;-64
2021/05/14 07:29:15;;;;;;;16.13;9.50;;;11.50;99.90;;;;;;6214600;23;20169;-64
2021/05/14 07:31:43;;;;;;;16.17;9.53;;;11.40;99.90;;;;;;6180281;23;20672;-63
2021/05/14 07:34:11;;;;;;;18.57;9.63;;;11.30;99.90;;;;;;6204566;22;20200;-65
2021/05/14 07:36:36;;;;;;;13.80;9.37;;;11.50;99.90;;;;;;6198725;23;20566;-65
2021/05/14 07:39:02;;;;;;;14.07;9.20;;;11.40;99.90;;;;;;6198770;23;20545;-65
2021/05/14 07:41:28;;;;;;;14.00;8.97;;;11.50;99.90;;;;;;6199624;22;20156;-64
2021/05/14 07:43:53;;;;;;;14.63;9.00;;;11.50;99.90;;;;;;6200895;23;20260;-65
2021/05/14 07:46:19;;;;;;;17.10;9.27;;;11.40;99.90;;;;;;6198306;22;20180;-65
2021/05/14 07:48:48;;;;;;;12.60;8.53;;;11.60;99.90;;;;;;6175582;23;20167;-65
2021/05/14 07:51:14;;;;;;;14.27;9.20;;;11.60;99.90;;;;;;6201142;23;20640;-64
2021/05/14 07:53:40;;;;;;;16.73;8.73;;;11.50;99.90;;;;;;6211007;23;20579;-63
2021/05/14 07:56:05;;;;;;;14.33;7.93;;;11.40;99.90;;;;;;6215897;23;21255;-64
2021/05/14 07:58:31;;;;;;;9.87;7.13;;;11.60;99.90;;;;;;6206013;23;20606;-64
2021/05/14 08:00:59;;;;;;;12.57;7.60;;;11.50;99.90;;;;;;6205438;22;20160;-64
2021/05/14 08:03:27;;;;;;;13.70;8.30;;;11.50;99.90;;;;;;6203614;23;20200;-65
2021/05/14 08:05:53;;;;;;;15.13;8.53;;;11.50;99.90;;;;;;6204693;23;20624;-64
2021/05/14 08:08:19;;;;;;;11.07;7.23;;;11.50;99.90;;;;;;6204329;23;20523;-64
2021/05/14 08:10:46;;;;;;;12.50;7.37;;;11.60;99.90;;;;;;6205090;22;20178;-64
2021/05/14 08:13:12;;;;;;;11.53;7.77;;;11.60;99.90;;;;;;6200048;23;21099;-64
2021/05/14 08:15:39;;;;;;;13.40;7.80;;;11.70;99.90;;;;;;6201748;22;20570;-64
2021/05/14 08:18:07;;;;;;;10.00;6.77;;;11.60;99.90;;;;;;6206677;22;20600;-65
2021/05/14 08:20:33;;;;;;;13.03;6.90;;;11.60;99.90;;;;;;6205833;23;20584;-64
2021/05/14 08:23:01;;;;;;;10.87;7.43;;;11.70;99.90;;;;;;6175205;23;20559;-64
2021/05/14 08:25:26;;;;;;;10.93;7.53;;;11.70;99.90;;;;;;6166187;23;20197;-64
2021/05/14 08:27:52;;;;;;;11.13;8.03;;;11.70;99.90;;;;;;6173919;23;20587;-65
2021/05/14 08:30:18;;;;;;;11.30;7.60;;;11.70;99.90;;;;;;6203241;23;20675;-63
2021/05/14 08:32:43;;;;;;;9.60;7.37;;;11.70;99.90;;;;;;6204768;23;20157;-64
2021/05/14 08:35:10;;;;;;;13.13;7.70;;;11.60;99.90;;;;;;6202939;23;20268;-64
2021/05/14 08:37:36;;;;;;;10.37;7.60;;;11.60;99.90;;;;;;6197776;23;20200;-64
2021/05/14 08:40:05;;;;;;;17.90;7.60;;;11.70;99.90;;;;;;6200166;22;20536;-63
2021/05/14 08:42:39;;;;;;;10.93;7.77;;;11.70;99.90;;;;;;6175229;23;20979;-64
2021/05/14 08:45:07;;;;;;;14.63;8.23;;;11.70;99.90;;;;;;6199163;23;20760;-64
2021/05/14 08:47:32;;;;;;;13.47;8.50;;;11.70;99.90;;;;;;6203613;23;20539;-64
2021/05/14 08:50:01;;;;;;;18.17;8.67;;;11.80;99.90;;;;;;6204264;23;21238;-64
2021/05/14 08:52:28;;;;;;;12.67;8.77;;;11.70;99.90;;;;;;6201400;23;20198;-65
2021/05/14 08:54:59;;;;;;;13.20;8.73;;;11.80;99.90;;;;;;6197680;23;20595;-64
2021/05/14 08:57:24;;;;;;;12.13;9.20;;;11.80;99.90;;;;;;6198480;22;20587;-65
2021/05/14 08:59:53;;;;;;;16.07;8.23;;;11.80;99.90;;;;;;6198616;23;20584;-68
2021/05/14 09:02:21;;;;;;;13.33;8.23;;;11.80;99.90;;;;;;6199825;23;20165;-67
2021/05/14 09:04:49;;;;;;;13.20;8.47;;;11.90;99.90;;;;;;6166848;23;20950;-68
2021/05/14 09:07:16;;;;;;;13.73;8.87;;;11.90;99.90;;;;;;6198312;23;20642;-68
2021/05/14 09:10:03;;;;;;;10.67;8.40;;;11.80;99.90;;;;;;6174209;23;20860;-68
2021/05/14 09:12:36;;;;;;;14.60;9.10;;;11.70;99.90;;;;;;6172816;23;21064;-64
2021/05/14 09:15:29;;;;;;;12.80;8.90;;;11.80;99.90;;;;;;6143989;22;20944;-63
2021/05/14 09:18:17;;;;;;;12.27;8.20;;;11.80;99.90;;;;;;6195801;23;20617;-62
2021/05/14 09:20:55;;;;;;;16.00;8.87;;;11.80;99.90;;;;;;6174834;23;20550;-66
2021/05/14 09:23:26;;;;;;;13.77;8.10;;;11.80;99.90;;;;;;6196502;23;20685;-66
2021/05/14 09:26:13;;;;;;;14.17;8.27;;;11.80;99.90;;;;;;6200333;22;20590;-65
2021/05/14 09:28:52;;;;;;;14.70;8.37;;;11.70;99.90;;;;;;6199140;22;20642;-65
2021/05/14 09:31:27;;;;;;;15.80;9.10;;;11.70;99.90;;;;;;6202722;23;21153;-66
2021/05/14 09:34:00;;;;;;;12.33;8.50;;;11.80;99.90;;;;;;6169792;23;20694;-67
2021/05/14 09:36:31;;;;;;;11.87;8.93;;;11.80;99.90;;;;;;6197796;23;20571;-66
2021/05/14 09:39:03;;;;;;;11.60;8.00;;;11.80;99.90;;;;;;6174205;23;20576;-66
2021/05/14 09:41:36;;;;;;;12.03;8.30;;;11.80;99.90;;;;;;6172985;23;20650;-66
2021/05/14 09:44:03;;;;;;;21.20;9.37;;;11.70;99.90;;;;;;6169910;23;20595;-66
2021/05/14 09:46:30;;;;;;;13.37;8.77;;;11.70;99.90;;;;;;6201001;23;20563;-66
2021/05/14 09:48:58;;;;;;;18.67;10.23;;;11.70;99.90;;;;;;6198650;23;20600;-66
2021/05/14 09:51:24;;;;;;;19.50;9.37;;;11.70;99.90;;;;;;6208484;23;20628;-67
2021/05/14 09:53:50;;;;;;;12.77;8.77;;;11.70;99.90;;;;;;6202385;22;20685;-66
2021/05/14 09:56:27;;;;;;;12.20;8.60;;;11.70;99.90;;;;;;6198632;22;20556;-67
2021/05/14 09:58:54;;;;;;;12.93;10.17;;;11.70;99.90;;;;;;6199404;23;20482;-66
2021/05/14 10:01:22;;;;;;;15.27;9.33;;;11.60;99.90;;;;;;6200658;23;20542;-67
2021/05/14 10:03:49;;;;;;;18.20;9.73;;;11.70;99.90;;;;;;6198458;23;20599;-66
2021/05/14 10:06:16;;;;;;;17.43;9.30;;;11.60;99.90;;;;;;6198375;23;20582;-66
2021/05/14 10:08:49;;;;;;;10.90;8.57;;;11.60;99.90;;;;;;6199158;23;20937;-65
2021/05/14 10:11:16;;;;;;;16.17;9.60;;;11.80;99.90;;;;;;6170029;23;20614;-66
2021/05/14 10:13:42;;;;;;;13.63;9.30;;;11.60;99.90;;;;;;6166852;22;20606;-66
2021/05/14 10:16:07;;;;;;;17.33;10.50;;;11.60;99.90;;;;;;6195569;23;21132;-66
2021/05/14 10:18:40;;;;;;;13.20;9.13;;;11.70;99.90;;;;;;6191734;23;20545;-66
2021/05/14 10:21:08;;;;;;;11.80;9.10;;;11.70;99.90;;;;;;6202220;22;20145;-66
2021/05/14 10:23:34;;;;;;;13.47;8.97;;;11.60;99.90;;;;;;6166992;23;20595;-66
2021/05/14 10:26:08;;;;;;;14.20;9.70;;;11.60;99.90;;;;;;6201524;23;20575;-67
2021/05/14 10:28:39;;;;;;;19.57;9.93;;;11.60;99.90;;;;;;6201759;23;20546;-67
2021/05/14 10:31:06;;;;;;;11.70;8.30;;;11.70;99.90;;;;;;6199093;23;20615;-65
2021/05/14 10:33:42;;;;;;;15.07;9.73;;;11.60;99.90;;;;;;6168738;22;20594;-65
2021/05/14 10:36:20;;;;;;;14.53;9.70;;;11.50;99.90;;;;;;6173883;23;20624;-61
2021/05/14 10:39:05;;;;;;;16.10;9.90;;;11.60;99.90;;;;;;6194409;23;20567;-66
2021/05/14 10:41:32;;;;;;;15.17;8.80;;;11.50;99.90;;;;;;6192210;23;20508;-66
2021/05/14 10:44:07;;;;;;;13.60;8.60;;;11.70;99.90;;;;;;6159130;22;20591;-63
2021/05/14 10:46:33;;;;;;;16.13;8.93;;;11.50;99.90;;;;;;6201906;23;21146;-62
2021/05/14 10:48:59;;;;;;;16.03;8.80;;;11.40;99.90;;;;;;6203289;23;20627;-65
2021/05/14 10:51:41;;;;;;;17.67;8.70;;;11.50;99.90;;;;;;6178886;23;21174;-62
2021/05/14 10:54:07;;;;;;;12.40;8.07;;;11.50;99.90;;;;;;6203361;23;20528;-64
2021/05/14 10:56:33;;;;;;;13.23;8.03;;;11.50;99.90;;;;;;6200200;23;20586;-62
2021/05/14 10:59:03;;;;;;;14.90;8.90;;;11.60;99.90;;;;;;6204595;23;20152;-62
2021/05/14 11:01:31;;;;;;;11.37;8.00;;;11.60;99.90;;;;;;6202359;23;20161;-67
2021/05/14 11:03:57;;;;;;;11.47;7.70;;;11.50;99.90;;;;;;6201390;22;20587;-63
2021/05/14 11:06:24;;;;;;;9.80;7.63;;;11.50;99.90;;;;;;6176149;23;20967;-64
2021/05/14 11:09:04;;;;;;;15.43;7.90;;;11.50;99.90;;;;;;6200576;22;20560;-63
2021/05/14 11:11:30;;;;;;;12.97;7.93;;;11.30;99.90;;;;;;6178392;22;20670;-67
2021/05/14 11:14:12;;;;;;;11.80;7.80;;;11.30;99.90;;;;;;6200727;23;20618;-64
2021/05/14 11:16:44;;;;;;;12.87;8.00;;;11.30;99.90;;;;;;6201025;23;20578;-65
2021/05/14 11:19:14;;;;;;;11.77;8.67;;;11.30;99.90;;;;;;6175720;23;20550;-63
2021/05/14 11:22:16;;;;;;;15.30;8.47;;;11.20;99.90;;;;;;6199643;23;20564;-63
2021/05/14 11:24:47;;;;;;;13.90;8.17;;;11.10;99.90;;;;;;6200978;23;20538;-66
2021/05/14 11:27:23;;;;;;;17.13;8.67;;;11.20;99.90;;;;;;6200160;23;20647;-63
2021/05/14 11:29:50;;;;;;;9.63;8.40;;;11.30;99.90;;;;;;6203485;23;20566;-63
2021/05/14 11:32:25;;;;;;;12.50;8.50;;;11.20;99.90;;;;;;6175582;22;21167;-66
2021/05/14 11:35:03;;;;;;;11.10;7.90;;;11.10;99.90;;;;;;6176434;22;21157;-63
2021/05/14 11:37:30;;;;;;;11.07;8.43;;;11.20;99.90;;;;;;6176833;23;20626;-63
2021/05/14 11:39:57;;;;;;;13.00;8.17;;;11.20;99.90;;;;;;6175655;23;20559;-63
2021/05/14 11:42:28;;;;;;;10.03;8.20;;;11.10;99.90;;;;;;6170750;23;21005;-63
2021/05/14 11:45:00;;;;;;;10.63;8.13;;;11.10;99.90;;;;;;6204187;23;20523;-62
2021/05/14 11:47:27;;;;;;;13.43;8.47;;;11.30;99.90;;;;;;6201966;23;20633;-63
2021/05/14 11:49:56;;;;;;;15.00;8.77;;;11.30;99.90;;;;;;6177147;23;20639;-64
2021/05/14 11:52:38;;;;;;;13.07;8.77;;;11.20;99.90;;;;;;6147976;22;20619;-67
2021/05/14 11:55:09;;;;;;;12.70;9.40;;;11.30;99.90;;;;;;6199792;23;21208;-65
2021/05/14 11:57:35;;;;;;;15.00;9.20;;;11.20;99.90;;;;;;6174400;23;20940;-65
2021/05/14 12:00:02;;;;;;;13.30;9.73;;;11.20;99.90;;;;;;6206207;23;20539;-63
2021/05/14 12:02:35;;;;;;;10.70;8.13;;;11.20;99.90;;;;;;6201514;23;20765;-63
2021/05/14 12:05:01;;;;;;;10.37;8.70;;;11.30;99.90;;;;;;6201976;23;20544;-65
2021/05/14 12:07:27;;;;;;;11.90;9.60;;;11.30;99.90;;;;;;6198288;23;20609;-64
2021/05/14 12:10:00;;;;;;;13.27;9.80;;;11.20;99.90;;;;;;6202109;23;20164;-63
2021/05/14 12:12:28;;;;;;;11.00;9.07;;;11.20;99.90;;;;;;6167646;23;20257;-63
2021/05/14 12:15:23;;;;;;;12.13;9.23;;;11.30;99.90;;;;;;6198506;23;20538;-65
2021/05/14 12:17:56;;;;;;;11.77;8.40;;;11.30;99.90;;;;;;6176192;23;20583;-64
2021/05/14 12:20:29;;;;;;;15.27;8.90;;;11.30;99.90;;;;;;6203225;22;20582;-64
2021/05/14 12:23:03;;;;;;;13.57;9.03;;;11.20;99.90;;;;;;6170365;22;20614;-63
2021/05/14 12:25:40;;;;;;;14.17;9.20;;;11.10;99.90;;;;;;6195033;23;20575;-67
2021/05/14 12:28:27;;;;;;;12.90;8.97;;;11.10;99.90;;;;;;6174143;23;20499;-64
2021/05/14 12:30:53;;;;;;;11.93;8.60;;;11.10;99.90;;;;;;6196120;23;20682;-63
2021/05/14 12:33:18;;;;;;;11.13;7.97;;;11.10;99.90;;;;;;6169238;23;20630;-63
2021/05/14 12:35:57;;;;;;;16.43;9.70;;;11.10;99.90;;;;;;6194299;23;20584;-66
2021/05/14 12:38:46;;;;;;;11.67;9.70;;;11.10;99.90;;;;;;6175033;23;20548;-66
2021/05/14 12:41:31;;;;;;;11.83;8.77;;;11.20;99.90;;;;;;6196773;23;20558;-63